sensor_id;sensor_type;location;lat;lon;timestamp;P1;durP1;ratioP1;P2;durP2;ratioP2
18999;SDS011;9633;50.980;13.850;2023-06-22T00:01:10;11.33;;;10.10;;
18999;SDS011;9633;50.980;13.850;2023-06-22T00:02:43;12.00;;;10.80;;
18999;SDS011;9633;50.980;13.850;2023-06-22T00:04:16;12.87;;;11.37;;
18999;SDS011;9633;50.980;13.850;2023-06-22T00:05:50;12.20;;;11.00;;
18999;SDS011;9633;50.980;13.850;2023-06-22T00:07:23;12.23;;;11.07;;
18999;SDS011;9633;50.980;13.850;2023-06-22T00:08:56;11.97;;;10.77;;
18999;SDS011;9633;50.980;13.850;2023-06-22T00:10:29;11.90;;;10.80;;
18999;SDS011;9633;50.980;13.850;2023-06-22T00:12:03;11.70;;;10.50;;
18999;SDS011;9633;50.980;13.850;2023-06-22T00:13:37;12.27;;;11.03;;
18999;SDS011;9633;50.980;13.850;2023-06-22T00:15:10;12.50;;;11.30;;
18999;SDS011;9633;50.980;13.850;2023-06-22T00:16:44;12.27;;;10.97;;
18999;SDS011;9633;50.980;13.850;2023-06-22T00:18:20;12.53;;;11.30;;
18999;SDS011;9633;50.980;13.850;2023-06-22T00:19:52;12.13;;;10.83;;
18999;SDS011;9633;50.980;13.850;2023-06-22T00:21:26;11.63;;;10.53;;
18999;SDS011;9633;50.980;13.850;2023-06-22T00:22:59;11.63;;;10.43;;
18999;SDS011;9633;50.980;13.850;2023-06-22T00:24:33;11.27;;;10.07;;
18999;SDS011;9633;50.980;13.850;2023-06-22T00:26:05;11.93;;;10.77;;
18999;SDS011;9633;50.980;13.850;2023-06-22T00:27:38;11.60;;;10.47;;
18999;SDS011;9633;50.980;13.850;2023-06-22T00:29:12;11.80;;;9.97;;
18999;SDS011;9633;50.980;13.850;2023-06-22T00:30:45;12.40;;;11.20;;
18999;SDS011;9633;50.980;13.850;2023-06-22T00:32:18;13.50;;;10.73;;
18999;SDS011;9633;50.980;13.850;2023-06-22T00:33:52;11.50;;;10.40;;
18999;SDS011;9633;50.980;13.850;2023-06-22T00:35:25;11.17;;;10.07;;
18999;SDS011;9633;50.980;13.850;2023-06-22T00:37:00;12.00;;;10.70;;
18999;SDS011;9633;50.980;13.850;2023-06-22T00:38:33;11.40;;;10.27;;
18999;SDS011;9633;50.980;13.850;2023-06-22T00:40:10;12.53;;;11.37;;
18999;SDS011;9633;50.980;13.850;2023-06-22T00:41:44;12.50;;;11.30;;
18999;SDS011;9633;50.980;13.850;2023-06-22T00:43:17;11.90;;;10.77;;
18999;SDS011;9633;50.980;13.850;2023-06-22T00:44:51;13.40;;;11.70;;
18999;SDS011;9633;50.980;13.850;2023-06-22T00:46:23;12.33;;;11.13;;
18999;SDS011;9633;50.980;13.850;2023-06-22T00:47:59;11.37;;;10.27;;
18999;SDS011;9633;50.980;13.850;2023-06-22T00:49:32;11.93;;;10.83;;
18999;SDS011;9633;50.980;13.850;2023-06-22T00:51:05;13.30;;;11.27;;
18999;SDS011;9633;50.980;13.850;2023-06-22T00:52:38;13.10;;;11.80;;
18999;SDS011;9633;50.980;13.850;2023-06-22T00:54:14;13.77;;;11.03;;
18999;SDS011;9633;50.980;13.850;2023-06-22T00:55:48;12.20;;;11.00;;
18999;SDS011;9633;50.980;13.850;2023-06-22T00:57:23;12.53;;;11.23;;
18999;SDS011;9633;50.980;13.850;2023-06-22T00:58:59;11.73;;;10.50;;
18999;SDS011;9633;50.980;13.850;2023-06-22T01:00:35;11.80;;;10.70;;
18999;SDS011;9633;50.980;13.850;2023-06-22T01:02:08;11.83;;;10.63;;
18999;SDS011;9633;50.980;13.850;2023-06-22T01:03:42;13.07;;;11.57;;
18999;SDS011;9633;50.980;13.850;2023-06-22T01:05:18;13.40;;;12.00;;
18999;SDS011;9633;50.980;13.850;2023-06-22T01:06:53;14.30;;;12.57;;
18999;SDS011;9633;50.980;13.850;2023-06-22T01:08:34;14.03;;;12.60;;
18999;SDS011;9633;50.980;13.850;2023-06-22T01:10:21;13.87;;;12.53;;
18999;SDS011;9633;50.980;13.850;2023-06-22T01:12:00;13.33;;;12.03;;
18999;SDS011;9633;50.980;13.850;2023-06-22T01:13:37;13.00;;;11.70;;
18999;SDS011;9633;50.980;13.850;2023-06-22T01:15:16;13.07;;;11.73;;
18999;SDS011;9633;50.980;13.850;2023-06-22T01:16:53;11.50;;;10.40;;
18999;SDS011;9633;50.980;13.850;2023-06-22T01:18:30;12.43;;;11.07;;
18999;SDS011;9633;50.980;13.850;2023-06-22T01:20:06;12.73;;;11.37;;
18999;SDS011;9633;50.980;13.850;2023-06-22T01:21:43;14.00;;;11.90;;
18999;SDS011;9633;50.980;13.850;2023-06-22T01:23:21;13.77;;;12.47;;
18999;SDS011;9633;50.980;13.850;2023-06-22T01:25:05;12.80;;;11.60;;
18999;SDS011;9633;50.980;13.850;2023-06-22T01:26:43;12.67;;;11.47;;
18999;SDS011;9633;50.980;13.850;2023-06-22T01:28:36;12.77;;;11.50;;
18999;SDS011;9633;50.980;13.850;2023-06-22T01:30:17;12.83;;;10.87;;
18999;SDS011;9633;50.980;13.850;2023-06-22T01:31:52;12.70;;;11.47;;
18999;SDS011;9633;50.980;13.850;2023-06-22T01:33:29;12.63;;;11.37;;
18999;SDS011;9633;50.980;13.850;2023-06-22T01:35:06;11.77;;;10.57;;
18999;SDS011;9633;50.980;13.850;2023-06-22T01:36:40;12.60;;;11.37;;
18999;SDS011;9633;50.980;13.850;2023-06-22T01:38:15;13.43;;;11.07;;
18999;SDS011;9633;50.980;13.850;2023-06-22T01:39:48;12.63;;;11.43;;
18999;SDS011;9633;50.980;13.850;2023-06-22T01:41:24;12.53;;;11.33;;
18999;SDS011;9633;50.980;13.850;2023-06-22T01:42:59;12.60;;;11.40;;
18999;SDS011;9633;50.980;13.850;2023-06-22T01:44:34;14.70;;;12.63;;
18999;SDS011;9633;50.980;13.850;2023-06-22T01:46:09;14.07;;;12.27;;
18999;SDS011;9633;50.980;13.850;2023-06-22T01:47:43;13.17;;;11.87;;
18999;SDS011;9633;50.980;13.850;2023-06-22T01:49:17;12.83;;;11.53;;
18999;SDS011;9633;50.980;13.850;2023-06-22T01:50:50;13.73;;;12.03;;
18999;SDS011;9633;50.980;13.850;2023-06-22T01:52:22;14.10;;;12.17;;
18999;SDS011;9633;50.980;13.850;2023-06-22T01:53:56;13.43;;;12.03;;
18999;SDS011;9633;50.980;13.850;2023-06-22T01:55:29;13.70;;;12.33;;
18999;SDS011;9633;50.980;13.850;2023-06-22T01:57:02;13.60;;;12.20;;
18999;SDS011;9633;50.980;13.850;2023-06-22T01:58:36;14.67;;;12.70;;
18999;SDS011;9633;50.980;13.850;2023-06-22T02:00:20;13.67;;;12.23;;
18999;SDS011;9633;50.980;13.850;2023-06-22T02:02:02;13.23;;;11.93;;
18999;SDS011;9633;50.980;13.850;2023-06-22T02:03:40;13.40;;;12.10;;
18999;SDS011;9633;50.980;13.850;2023-06-22T02:05:16;13.07;;;11.80;;
18999;SDS011;9633;50.980;13.850;2023-06-22T02:06:51;12.80;;;11.43;;
18999;SDS011;9633;50.980;13.850;2023-06-22T02:08:29;12.77;;;11.47;;
18999;SDS011;9633;50.980;13.850;2023-06-22T02:10:07;12.10;;;10.90;;
18999;SDS011;9633;50.980;13.850;2023-06-22T02:11:44;14.23;;;11.87;;
18999;SDS011;9633;50.980;13.850;2023-06-22T02:13:19;12.90;;;11.30;;
18999;SDS011;9633;50.980;13.850;2023-06-22T02:14:52;14.70;;;12.00;;
18999;SDS011;9633;50.980;13.850;2023-06-22T02:16:27;13.13;;;11.73;;
18999;SDS011;9633;50.980;13.850;2023-06-22T02:18:01;12.87;;;11.57;;
18999;SDS011;9633;50.980;13.850;2023-06-22T02:19:35;13.03;;;11.67;;
18999;SDS011;9633;50.980;13.850;2023-06-22T02:21:09;14.60;;;12.60;;
18999;SDS011;9633;50.980;13.850;2023-06-22T02:22:42;14.00;;;12.60;;
18999;SDS011;9633;50.980;13.850;2023-06-22T02:24:15;14.60;;;12.80;;
18999;SDS011;9633;50.980;13.850;2023-06-22T02:25:48;18.03;;;13.17;;
18999;SDS011;9633;50.980;13.850;2023-06-22T02:27:21;13.33;;;11.93;;
18999;SDS011;9633;50.980;13.850;2023-06-22T02:28:54;14.13;;;12.73;;
18999;SDS011;9633;50.980;13.850;2023-06-22T02:30:27;13.60;;;12.20;;
18999;SDS011;9633;50.980;13.850;2023-06-22T02:32:03;13.77;;;12.47;;
18999;SDS011;9633;50.980;13.850;2023-06-22T02:33:36;14.20;;;11.87;;
18999;SDS011;9633;50.980;13.850;2023-06-22T02:35:09;13.40;;;12.00;;
18999;SDS011;9633;50.980;13.850;2023-06-22T02:36:43;12.90;;;11.60;;
18999;SDS011;9633;50.980;13.850;2023-06-22T02:38:22;12.83;;;11.53;;
18999;SDS011;9633;50.980;13.850;2023-06-22T02:39:56;13.03;;;11.73;;
18999;SDS011;9633;50.980;13.850;2023-06-22T02:41:29;15.43;;;11.77;;
18999;SDS011;9633;50.980;13.850;2023-06-22T02:43:02;13.77;;;12.27;;
18999;SDS011;9633;50.980;13.850;2023-06-22T02:44:35;13.33;;;11.97;;
18999;SDS011;9633;50.980;13.850;2023-06-22T02:46:08;14.23;;;11.47;;
18999;SDS011;9633;50.980;13.850;2023-06-22T02:47:44;18.53;;;12.80;;
18999;SDS011;9633;50.980;13.850;2023-06-22T02:49:19;16.73;;;13.40;;
18999;SDS011;9633;50.980;13.850;2023-06-22T02:50:52;14.43;;;13.00;;
18999;SDS011;9633;50.980;13.850;2023-06-22T02:52:25;14.43;;;12.93;;
18999;SDS011;9633;50.980;13.850;2023-06-22T02:53:58;14.23;;;12.70;;
18999;SDS011;9633;50.980;13.850;2023-06-22T02:55:32;14.33;;;12.83;;
18999;SDS011;9633;50.980;13.850;2023-06-22T02:57:06;14.47;;;12.83;;
18999;SDS011;9633;50.980;13.850;2023-06-22T02:58:46;16.03;;;13.10;;
18999;SDS011;9633;50.980;13.850;2023-06-22T03:00:19;15.43;;;13.83;;
18999;SDS011;9633;50.980;13.850;2023-06-22T03:01:53;13.17;;;11.83;;
18999;SDS011;9633;50.980;13.850;2023-06-22T03:03:32;14.60;;;12.80;;
18999;SDS011;9633;50.980;13.850;2023-06-22T03:05:05;15.97;;;13.10;;
18999;SDS011;9633;50.980;13.850;2023-06-22T03:06:41;15.47;;;12.57;;
18999;SDS011;9633;50.980;13.850;2023-06-22T03:08:13;15.27;;;12.27;;
18999;SDS011;9633;50.980;13.850;2023-06-22T03:09:46;16.50;;;13.00;;
18999;SDS011;9633;50.980;13.850;2023-06-22T03:11:20;15.03;;;12.57;;
18999;SDS011;9633;50.980;13.850;2023-06-22T03:12:54;14.30;;;12.90;;
18999;SDS011;9633;50.980;13.850;2023-06-22T03:14:27;14.43;;;12.97;;
18999;SDS011;9633;50.980;13.850;2023-06-22T03:16:00;14.80;;;13.27;;
18999;SDS011;9633;50.980;13.850;2023-06-22T03:17:34;15.57;;;13.23;;
18999;SDS011;9633;50.980;13.850;2023-06-22T03:19:09;15.60;;;13.80;;
18999;SDS011;9633;50.980;13.850;2023-06-22T03:20:42;14.00;;;12.67;;
18999;SDS011;9633;50.980;13.850;2023-06-22T03:22:15;14.77;;;12.27;;
18999;SDS011;9633;50.980;13.850;2023-06-22T03:23:49;13.90;;;12.07;;
18999;SDS011;9633;50.980;13.850;2023-06-22T03:25:22;14.07;;;12.57;;
18999;SDS011;9633;50.980;13.850;2023-06-22T03:26:55;14.23;;;12.73;;
18999;SDS011;9633;50.980;13.850;2023-06-22T03:28:29;14.13;;;12.00;;
18999;SDS011;9633;50.980;13.850;2023-06-22T03:30:02;13.37;;;12.03;;
18999;SDS011;9633;50.980;13.850;2023-06-22T03:31:36;13.33;;;11.97;;
18999;SDS011;9633;50.980;13.850;2023-06-22T03:33:10;13.30;;;12.00;;
18999;SDS011;9633;50.980;13.850;2023-06-22T03:34:45;14.63;;;12.00;;
18999;SDS011;9633;50.980;13.850;2023-06-22T03:36:18;15.73;;;12.47;;
18999;SDS011;9633;50.980;13.850;2023-06-22T03:37:52;13.70;;;12.03;;
18999;SDS011;9633;50.980;13.850;2023-06-22T03:39:25;13.50;;;12.20;;
18999;SDS011;9633;50.980;13.850;2023-06-22T03:40:58;14.03;;;12.07;;
18999;SDS011;9633;50.980;13.850;2023-06-22T03:42:33;12.90;;;11.60;;
18999;SDS011;9633;50.980;13.850;2023-06-22T03:44:07;12.70;;;11.40;;
18999;SDS011;9633;50.980;13.850;2023-06-22T03:45:43;13.23;;;11.73;;
18999;SDS011;9633;50.980;13.850;2023-06-22T03:47:17;13.10;;;11.70;;
18999;SDS011;9633;50.980;13.850;2023-06-22T03:48:51;12.67;;;11.37;;
18999;SDS011;9633;50.980;13.850;2023-06-22T03:50:25;11.77;;;10.60;;
18999;SDS011;9633;50.980;13.850;2023-06-22T03:51:59;11.57;;;10.47;;
18999;SDS011;9633;50.980;13.850;2023-06-22T03:53:32;12.33;;;11.03;;
18999;SDS011;9633;50.980;13.850;2023-06-22T03:55:06;12.30;;;11.00;;
18999;SDS011;9633;50.980;13.850;2023-06-22T03:56:40;11.63;;;10.50;;
18999;SDS011;9633;50.980;13.850;2023-06-22T03:58:12;11.60;;;10.40;;
18999;SDS011;9633;50.980;13.850;2023-06-22T03:59:45;11.77;;;10.57;;
18999;SDS011;9633;50.980;13.850;2023-06-22T04:01:18;12.67;;;11.37;;
18999;SDS011;9633;50.980;13.850;2023-06-22T04:02:52;12.17;;;10.97;;
18999;SDS011;9633;50.980;13.850;2023-06-22T04:04:25;10.87;;;9.80;;
18999;SDS011;9633;50.980;13.850;2023-06-22T04:06:00;10.93;;;9.83;;
18999;SDS011;9633;50.980;13.850;2023-06-22T04:07:33;12.27;;;10.60;;
18999;SDS011;9633;50.980;13.850;2023-06-22T04:09:08;11.93;;;10.27;;
18999;SDS011;9633;50.980;13.850;2023-06-22T04:10:41;11.70;;;10.60;;
18999;SDS011;9633;50.980;13.850;2023-06-22T04:12:15;11.07;;;9.97;;
18999;SDS011;9633;50.980;13.850;2023-06-22T04:13:48;14.37;;;10.60;;
18999;SDS011;9633;50.980;13.850;2023-06-22T04:15:22;11.03;;;9.93;;
18999;SDS011;9633;50.980;13.850;2023-06-22T04:16:56;16.77;;;10.43;;
18999;SDS011;9633;50.980;13.850;2023-06-22T04:18:30;11.30;;;9.80;;
18999;SDS011;9633;50.980;13.850;2023-06-22T04:20:03;11.97;;;10.67;;
18999;SDS011;9633;50.980;13.850;2023-06-22T04:21:39;10.93;;;9.90;;
18999;SDS011;9633;50.980;13.850;2023-06-22T04:23:12;10.30;;;9.20;;
18999;SDS011;9633;50.980;13.850;2023-06-22T04:24:46;11.50;;;10.30;;
18999;SDS011;9633;50.980;13.850;2023-06-22T04:26:19;12.53;;;10.23;;
18999;SDS011;9633;50.980;13.850;2023-06-22T04:27:53;11.47;;;10.37;;
18999;SDS011;9633;50.980;13.850;2023-06-22T04:29:26;11.07;;;9.93;;
18999;SDS011;9633;50.980;13.850;2023-06-22T04:31:01;11.83;;;10.07;;
18999;SDS011;9633;50.980;13.850;2023-06-22T04:32:35;10.47;;;9.37;;
18999;SDS011;9633;50.980;13.850;2023-06-22T04:34:09;11.60;;;9.87;;
18999;SDS011;9633;50.980;13.850;2023-06-22T04:35:44;10.47;;;9.13;;
18999;SDS011;9633;50.980;13.850;2023-06-22T04:37:19;11.90;;;10.00;;
18999;SDS011;9633;50.980;13.850;2023-06-22T04:38:54;12.67;;;10.10;;
18999;SDS011;9633;50.980;13.850;2023-06-22T04:40:29;11.10;;;9.90;;
18999;SDS011;9633;50.980;13.850;2023-06-22T04:42:02;11.60;;;10.07;;
18999;SDS011;9633;50.980;13.850;2023-06-22T04:43:36;10.63;;;9.53;;
18999;SDS011;9633;50.980;13.850;2023-06-22T04:45:09;14.07;;;10.20;;
18999;SDS011;9633;50.980;13.850;2023-06-22T04:46:43;12.50;;;10.43;;
18999;SDS011;9633;50.980;13.850;2023-06-22T04:48:16;12.03;;;10.13;;
18999;SDS011;9633;50.980;13.850;2023-06-22T04:49:49;12.90;;;11.67;;
18999;SDS011;9633;50.980;13.850;2023-06-22T04:51:22;13.70;;;11.77;;
18999;SDS011;9633;50.980;13.850;2023-06-22T04:53:02;13.07;;;11.70;;
18999;SDS011;9633;50.980;13.850;2023-06-22T04:54:37;13.07;;;11.83;;
18999;SDS011;9633;50.980;13.850;2023-06-22T04:56:19;13.80;;;12.13;;
18999;SDS011;9633;50.980;13.850;2023-06-22T04:57:53;11.73;;;10.53;;
18999;SDS011;9633;50.980;13.850;2023-06-22T04:59:27;13.37;;;12.07;;
18999;SDS011;9633;50.980;13.850;2023-06-22T05:01:01;12.43;;;11.20;;
18999;SDS011;9633;50.980;13.850;2023-06-22T05:02:35;12.30;;;11.00;;
18999;SDS011;9633;50.980;13.850;2023-06-22T05:04:09;13.87;;;11.83;;
18999;SDS011;9633;50.980;13.850;2023-06-22T05:05:43;14.60;;;11.63;;
18999;SDS011;9633;50.980;13.850;2023-06-22T05:07:16;12.90;;;11.63;;
18999;SDS011;9633;50.980;13.850;2023-06-22T05:08:50;13.23;;;11.93;;
18999;SDS011;9633;50.980;13.850;2023-06-22T05:10:24;14.83;;;11.07;;
18999;SDS011;9633;50.980;13.850;2023-06-22T05:11:57;14.53;;;11.73;;
18999;SDS011;9633;50.980;13.850;2023-06-22T05:13:31;13.63;;;11.13;;
18999;SDS011;9633;50.980;13.850;2023-06-22T05:15:05;12.30;;;11.00;;
18999;SDS011;9633;50.980;13.850;2023-06-22T05:16:40;13.17;;;11.03;;
18999;SDS011;9633;50.980;13.850;2023-06-22T05:18:14;12.37;;;10.70;;
18999;SDS011;9633;50.980;13.850;2023-06-22T05:19:47;12.23;;;11.07;;
18999;SDS011;9633;50.980;13.850;2023-06-22T05:21:24;11.80;;;10.63;;
18999;SDS011;9633;50.980;13.850;2023-06-22T05:22:58;11.67;;;10.50;;
18999;SDS011;9633;50.980;13.850;2023-06-22T05:24:33;11.73;;;10.63;;
18999;SDS011;9633;50.980;13.850;2023-06-22T05:26:06;11.80;;;10.50;;
18999;SDS011;9633;50.980;13.850;2023-06-22T05:27:41;12.80;;;10.57;;
18999;SDS011;9633;50.980;13.850;2023-06-22T05:29:15;12.00;;;10.70;;
18999;SDS011;9633;50.980;13.850;2023-06-22T05:30:48;12.47;;;11.17;;
18999;SDS011;9633;50.980;13.850;2023-06-22T05:32:22;11.37;;;10.00;;
18999;SDS011;9633;50.980;13.850;2023-06-22T05:33:55;12.10;;;10.57;;
18999;SDS011;9633;50.980;13.850;2023-06-22T05:35:28;11.63;;;10.53;;
18999;SDS011;9633;50.980;13.850;2023-06-22T05:37:02;11.97;;;10.87;;
18999;SDS011;9633;50.980;13.850;2023-06-22T05:38:35;12.20;;;10.77;;
18999;SDS011;9633;50.980;13.850;2023-06-22T05:40:11;11.20;;;9.73;;
18999;SDS011;9633;50.980;13.850;2023-06-22T05:41:45;11.75;;;10.13;;
18999;SDS011;9633;50.980;13.850;2023-06-22T05:43:18;10.87;;;9.77;;
18999;SDS011;9633;50.980;13.850;2023-06-22T05:44:52;10.87;;;9.77;;
18999;SDS011;9633;50.980;13.850;2023-06-22T05:46:25;11.60;;;10.10;;
18999;SDS011;9633;50.980;13.850;2023-06-22T05:47:58;11.00;;;9.87;;
18999;SDS011;9633;50.980;13.850;2023-06-22T05:49:33;16.60;;;10.60;;
18999;SDS011;9633;50.980;13.850;2023-06-22T05:51:06;13.13;;;10.17;;
18999;SDS011;9633;50.980;13.850;2023-06-22T05:52:39;13.07;;;10.03;;
18999;SDS011;9633;50.980;13.850;2023-06-22T05:54:12;15.97;;;9.50;;
18999;SDS011;9633;50.980;13.850;2023-06-22T05:55:48;11.40;;;9.27;;
18999;SDS011;9633;50.980;13.850;2023-06-22T05:57:22;12.10;;;8.53;;
18999;SDS011;9633;50.980;13.850;2023-06-22T05:58:55;16.23;;;9.37;;
18999;SDS011;9633;50.980;13.850;2023-06-22T06:00:28;10.73;;;7.87;;
18999;SDS011;9633;50.980;13.850;2023-06-22T06:02:02;10.37;;;8.03;;
18999;SDS011;9633;50.980;13.850;2023-06-22T06:03:36;9.67;;;8.70;;
18999;SDS011;9633;50.980;13.850;2023-06-22T06:05:12;8.77;;;7.87;;
18999;SDS011;9633;50.980;13.850;2023-06-22T06:06:46;8.23;;;7.43;;
18999;SDS011;9633;50.980;13.850;2023-06-22T06:08:19;9.83;;;7.90;;
18999;SDS011;9633;50.980;13.850;2023-06-22T06:09:53;8.90;;;7.97;;
18999;SDS011;9633;50.980;13.850;2023-06-22T06:11:28;9.03;;;7.93;;
18999;SDS011;9633;50.980;13.850;2023-06-22T06:13:01;8.93;;;7.85;;
18999;SDS011;9633;50.980;13.850;2023-06-22T06:14:35;8.52;;;7.72;;
18999;SDS011;9633;50.980;13.850;2023-06-22T06:16:09;9.63;;;8.18;;
18999;SDS011;9633;50.980;13.850;2023-06-22T06:17:46;8.77;;;7.97;;
18999;SDS011;9633;50.980;13.850;2023-06-22T06:19:20;9.32;;;8.13;;
18999;SDS011;9633;50.980;13.850;2023-06-22T06:20:53;8.93;;;8.02;;
18999;SDS011;9633;50.980;13.850;2023-06-22T06:22:26;8.75;;;7.85;;
18999;SDS011;9633;50.980;13.850;2023-06-22T06:24:00;9.18;;;8.27;;
18999;SDS011;9633;50.980;13.850;2023-06-22T06:25:33;10.27;;;8.20;;
18999;SDS011;9633;50.980;13.850;2023-06-22T06:27:08;8.75;;;7.85;;
18999;SDS011;9633;50.980;13.850;2023-06-22T06:28:42;9.65;;;8.20;;
18999;SDS011;9633;50.980;13.850;2023-06-22T06:30:16;9.98;;;8.32;;
18999;SDS011;9633;50.980;13.850;2023-06-22T06:31:50;10.43;;;8.48;;
18999;SDS011;9633;50.980;13.850;2023-06-22T06:33:25;9.60;;;8.47;;
18999;SDS011;9633;50.980;13.850;2023-06-22T06:34:58;8.70;;;7.97;;
18999;SDS011;9633;50.980;13.850;2023-06-22T06:36:32;10.27;;;8.27;;
18999;SDS011;9633;50.980;13.850;2023-06-22T06:38:05;9.67;;;8.20;;
18999;SDS011;9633;50.980;13.850;2023-06-22T06:39:39;14.20;;;8.17;;
18999;SDS011;9633;50.980;13.850;2023-06-22T06:41:15;10.27;;;8.30;;
18999;SDS011;9633;50.980;13.850;2023-06-22T06:42:50;9.10;;;8.20;;
18999;SDS011;9633;50.980;13.850;2023-06-22T06:44:23;12.70;;;8.77;;
18999;SDS011;9633;50.980;13.850;2023-06-22T06:45:57;9.17;;;8.10;;
18999;SDS011;9633;50.980;13.850;2023-06-22T06:47:30;11.10;;;8.43;;
18999;SDS011;9633;50.980;13.850;2023-06-22T06:49:04;9.47;;;8.53;;
18999;SDS011;9633;50.980;13.850;2023-06-22T06:50:37;9.00;;;8.20;;
18999;SDS011;9633;50.980;13.850;2023-06-22T06:52:11;9.60;;;8.57;;
18999;SDS011;9633;50.980;13.850;2023-06-22T06:53:44;9.37;;;8.47;;
18999;SDS011;9633;50.980;13.850;2023-06-22T06:55:18;10.63;;;8.10;;
18999;SDS011;9633;50.980;13.850;2023-06-22T06:56:51;9.73;;;7.67;;
18999;SDS011;9633;50.980;13.850;2023-06-22T06:58:26;8.53;;;7.77;;
18999;SDS011;9633;50.980;13.850;2023-06-22T07:00:00;9.73;;;8.83;;
18999;SDS011;9633;50.980;13.850;2023-06-22T07:01:38;9.07;;;8.27;;
18999;SDS011;9633;50.980;13.850;2023-06-22T07:03:12;9.67;;;8.77;;
18999;SDS011;9633;50.980;13.850;2023-06-22T07:04:45;9.40;;;8.47;;
18999;SDS011;9633;50.980;13.850;2023-06-22T07:06:19;9.90;;;8.90;;
18999;SDS011;9633;50.980;13.850;2023-06-22T07:07:53;9.70;;;8.90;;
18999;SDS011;9633;50.980;13.850;2023-06-22T07:09:26;8.90;;;8.10;;
18999;SDS011;9633;50.980;13.850;2023-06-22T07:11:00;9.73;;;8.82;;
18999;SDS011;9633;50.980;13.850;2023-06-22T07:12:33;9.98;;;9.07;;
18999;SDS011;9633;50.980;13.850;2023-06-22T07:14:08;9.18;;;8.27;;
18999;SDS011;9633;50.980;13.850;2023-06-22T07:15:42;9.70;;;8.65;;
18999;SDS011;9633;50.980;13.850;2023-06-22T07:17:15;9.05;;;8.25;;
18999;SDS011;9633;50.980;13.850;2023-06-22T07:18:49;9.73;;;8.85;;
18999;SDS011;9633;50.980;13.850;2023-06-22T07:20:22;10.00;;;9.20;;
18999;SDS011;9633;50.980;13.850;2023-06-22T07:21:56;10.00;;;9.10;;
18999;SDS011;9633;50.980;13.850;2023-06-22T07:23:29;9.85;;;9.05;;
18999;SDS011;9633;50.980;13.850;2023-06-22T07:25:03;9.40;;;8.60;;
18999;SDS011;9633;50.980;13.850;2023-06-22T07:26:40;10.30;;;9.40;;
18999;SDS011;9633;50.980;13.850;2023-06-22T07:28:17;10.32;;;9.40;;
18999;SDS011;9633;50.980;13.850;2023-06-22T07:29:52;9.90;;;9.00;;
18999;SDS011;9633;50.980;13.850;2023-06-22T07:31:27;9.80;;;9.00;;
18999;SDS011;9633;50.980;13.850;2023-06-22T07:33:01;10.20;;;8.82;;
18999;SDS011;9633;50.980;13.850;2023-06-22T07:34:37;10.43;;;9.52;;
18999;SDS011;9633;50.980;13.850;2023-06-22T07:36:11;10.13;;;9.13;;
18999;SDS011;9633;50.980;13.850;2023-06-22T07:37:44;12.07;;;9.60;;
18999;SDS011;9633;50.980;13.850;2023-06-22T07:39:18;9.73;;;8.85;;
18999;SDS011;9633;50.980;13.850;2023-06-22T07:40:57;10.13;;;9.13;;
18999;SDS011;9633;50.980;13.850;2023-06-22T07:42:31;9.75;;;8.85;;
18999;SDS011;9633;50.980;13.850;2023-06-22T07:44:05;9.43;;;8.63;;
18999;SDS011;9633;50.980;13.850;2023-06-22T07:45:40;13.00;;;9.00;;
18999;SDS011;9633;50.980;13.850;2023-06-22T07:47:16;9.80;;;8.90;;
18999;SDS011;9633;50.980;13.850;2023-06-22T07:48:50;10.98;;;9.10;;
18999;SDS011;9633;50.980;13.850;2023-06-22T07:50:27;10.32;;;9.35;;
18999;SDS011;9633;50.980;13.850;2023-06-22T07:52:01;11.13;;;9.25;;
18999;SDS011;9633;50.980;13.850;2023-06-22T07:53:37;10.63;;;9.63;;
18999;SDS011;9633;50.980;13.850;2023-06-22T07:55:11;11.48;;;9.25;;
18999;SDS011;9633;50.980;13.850;2023-06-22T07:56:45;12.30;;;9.25;;
18999;SDS011;9633;50.980;13.850;2023-06-22T07:58:19;10.48;;;9.30;;
18999;SDS011;9633;50.980;13.850;2023-06-22T07:59:53;10.55;;;9.45;;
18999;SDS011;9633;50.980;13.850;2023-06-22T08:01:27;9.65;;;8.65;;
18999;SDS011;9633;50.980;13.850;2023-06-22T08:03:01;10.13;;;9.27;;
18999;SDS011;9633;50.980;13.850;2023-06-22T08:04:36;9.68;;;8.88;;
18999;SDS011;9633;50.980;13.850;2023-06-22T08:06:10;9.93;;;8.80;;
18999;SDS011;9633;50.980;13.850;2023-06-22T08:07:43;9.90;;;8.85;;
18999;SDS011;9633;50.980;13.850;2023-06-22T08:09:19;9.68;;;8.75;;
18999;SDS011;9633;50.980;13.850;2023-06-22T08:10:53;10.30;;;8.65;;
18999;SDS011;9633;50.980;13.850;2023-06-22T08:12:26;10.02;;;9.13;;
18999;SDS011;9633;50.980;13.850;2023-06-22T08:14:00;9.27;;;8.38;;
18999;SDS011;9633;50.980;13.850;2023-06-22T08:15:34;9.45;;;8.55;;
18999;SDS011;9633;50.980;13.850;2023-06-22T08:17:09;9.38;;;8.57;;
18999;SDS011;9633;50.980;13.850;2023-06-22T08:18:42;8.85;;;8.05;;
18999;SDS011;9633;50.980;13.850;2023-06-22T08:20:16;9.68;;;8.88;;
18999;SDS011;9633;50.980;13.850;2023-06-22T08:21:49;8.88;;;8.15;;
18999;SDS011;9633;50.980;13.850;2023-06-22T08:23:23;9.45;;;7.93;;
18999;SDS011;9633;50.980;13.850;2023-06-22T08:24:56;9.40;;;8.50;;
18999;SDS011;9633;50.980;13.850;2023-06-22T08:26:30;9.77;;;8.35;;
18999;SDS011;9633;50.980;13.850;2023-06-22T08:28:07;10.02;;;8.82;;
18999;SDS011;9633;50.980;13.850;2023-06-22T08:29:41;9.02;;;8.13;;
18999;SDS011;9633;50.980;13.850;2023-06-22T08:31:14;10.55;;;9.05;;
18999;SDS011;9633;50.980;13.850;2023-06-22T08:32:49;9.68;;;8.68;;
18999;SDS011;9633;50.980;13.850;2023-06-22T08:34:23;8.70;;;7.90;;
18999;SDS011;9633;50.980;13.850;2023-06-22T08:35:59;9.20;;;8.32;;
18999;SDS011;9633;50.980;13.850;2023-06-22T08:37:32;9.88;;;8.85;;
18999;SDS011;9633;50.980;13.850;2023-06-22T08:39:07;9.48;;;8.57;;
18999;SDS011;9633;50.980;13.850;2023-06-22T08:40:41;9.65;;;8.75;;
18999;SDS011;9633;50.980;13.850;2023-06-22T08:42:14;9.88;;;8.30;;
18999;SDS011;9633;50.980;13.850;2023-06-22T08:43:48;10.50;;;9.50;;
18999;SDS011;9633;50.980;13.850;2023-06-22T08:45:21;10.05;;;8.95;;
18999;SDS011;9633;50.980;13.850;2023-06-22T08:46:57;9.98;;;9.07;;
18999;SDS011;9633;50.980;13.850;2023-06-22T08:48:31;10.70;;;9.80;;
18999;SDS011;9633;50.980;13.850;2023-06-22T08:50:06;10.07;;;9.18;;
18999;SDS011;9633;50.980;13.850;2023-06-22T08:51:40;9.15;;;8.25;;
18999;SDS011;9633;50.980;13.850;2023-06-22T08:53:15;9.52;;;8.73;;
18999;SDS011;9633;50.980;13.850;2023-06-22T08:54:49;9.40;;;8.50;;
18999;SDS011;9633;50.980;13.850;2023-06-22T08:56:22;9.38;;;8.50;;
18999;SDS011;9633;50.980;13.850;2023-06-22T08:57:56;9.20;;;8.30;;
18999;SDS011;9633;50.980;13.850;2023-06-22T08:59:30;9.98;;;9.15;;
18999;SDS011;9633;50.980;13.850;2023-06-22T09:01:03;10.57;;;9.68;;
18999;SDS011;9633;50.980;13.850;2023-06-22T09:02:37;9.30;;;8.43;;
18999;SDS011;9633;50.980;13.850;2023-06-22T09:04:13;9.45;;;8.75;;
18999;SDS011;9633;50.980;13.850;2023-06-22T09:05:47;9.23;;;8.43;;
18999;SDS011;9633;50.980;13.850;2023-06-22T09:07:21;9.30;;;8.50;;
18999;SDS011;9633;50.980;13.850;2023-06-22T09:08:56;9.80;;;8.85;;
18999;SDS011;9633;50.980;13.850;2023-06-22T09:10:30;8.15;;;7.53;;
18999;SDS011;9633;50.980;13.850;2023-06-22T09:12:04;9.70;;;8.90;;
18999;SDS011;9633;50.980;13.850;2023-06-22T09:13:39;9.63;;;8.73;;
18999;SDS011;9633;50.980;13.850;2023-06-22T09:15:13;8.85;;;8.10;;
18999;SDS011;9633;50.980;13.850;2023-06-22T09:16:49;8.52;;;7.82;;
18999;SDS011;9633;50.980;13.850;2023-06-22T09:18:22;10.73;;;8.25;;